sensor_id;sensor_type;location;lat;lon;timestamp;P1;durP1;ratioP1;P2;durP2;ratioP2
37459;SDS011;23318;50.966;5.284;2023-01-09T00:02:20;1.67;;;0.55;;
37459;SDS011;23318;50.966;5.284;2023-01-09T00:04:46;2.92;;;0.70;;
37459;SDS011;23318;50.966;5.284;2023-01-09T00:07:11;1.95;;;0.70;;
37459;SDS011;23318;50.966;5.284;2023-01-09T00:09:37;1.83;;;0.70;;
37459;SDS011;23318;50.966;5.284;2023-01-09T00:12:02;3.80;;;0.70;;
37459;SDS011;23318;50.966;5.284;2023-01-09T00:14:28;3.35;;;0.90;;
37459;SDS011;23318;50.966;5.284;2023-01-09T00:16:54;9.25;;;1.65;;
37459;SDS011;23318;50.966;5.284;2023-01-09T00:19:20;2.13;;;0.93;;
37459;SDS011;23318;50.966;5.284;2023-01-09T00:21:46;2.78;;;0.80;;
37459;SDS011;23318;50.966;5.284;2023-01-09T00:24:12;2.25;;;1.10;;
37459;SDS011;23318;50.966;5.284;2023-01-09T00:26:38;1.85;;;0.80;;
37459;SDS011;23318;50.966;5.284;2023-01-09T00:29:03;1.67;;;0.50;;
37459;SDS011;23318;50.966;5.284;2023-01-09T00:31:29;2.15;;;0.80;;
37459;SDS011;23318;50.966;5.284;2023-01-09T00:33:57;2.33;;;0.93;;
37459;SDS011;23318;50.966;5.284;2023-01-09T00:36:30;0.95;;;0.60;;
37459;SDS011;23318;50.966;5.284;2023-01-09T00:38:56;0.80;;;0.40;;
37459;SDS011;23318;50.966;5.284;2023-01-09T00:41:24;2.30;;;0.50;;
37459;SDS011;23318;50.966;5.284;2023-01-09T00:43:55;1.13;;;0.50;;
37459;SDS011;23318;50.966;5.284;2023-01-09T00:46:26;1.80;;;0.55;;
37459;SDS011;23318;50.966;5.284;2023-01-09T00:48:57;1.10;;;0.40;;
37459;SDS011;23318;50.966;5.284;2023-01-09T00:51:23;0.90;;;0.50;;
37459;SDS011;23318;50.966;5.284;2023-01-09T00:53:49;2.03;;;0.40;;
37459;SDS011;23318;50.966;5.284;2023-01-09T00:56:17;1.00;;;0.65;;
37459;SDS011;23318;50.966;5.284;2023-01-09T00:58:44;1.42;;;0.32;;
37459;SDS011;23318;50.966;5.284;2023-01-09T01:01:10;2.15;;;0.35;;
37459;SDS011;23318;50.966;5.284;2023-01-09T01:03:36;4.22;;;0.45;;
37459;SDS011;23318;50.966;5.284;2023-01-09T01:06:02;1.75;;;0.50;;
37459;SDS011;23318;50.966;5.284;2023-01-09T01:08:46;1.55;;;0.40;;
37459;SDS011;23318;50.966;5.284;2023-01-09T01:11:12;2.40;;;0.50;;
37459;SDS011;23318;50.966;5.284;2023-01-09T01:13:38;1.50;;;0.57;;
37459;SDS011;23318;50.966;5.284;2023-01-09T01:16:09;1.13;;;0.55;;
37459;SDS011;23318;50.966;5.284;2023-01-09T01:18:35;1.30;;;0.68;;
37459;SDS011;23318;50.966;5.284;2023-01-09T01:21:08;1.27;;;0.70;;
37459;SDS011;23318;50.966;5.284;2023-01-09T01:23:35;1.45;;;0.70;;
37459;SDS011;23318;50.966;5.284;2023-01-09T01:26:05;3.22;;;0.85;;
37459;SDS011;23318;50.966;5.284;2023-01-09T01:28:33;2.42;;;0.82;;
37459;SDS011;23318;50.966;5.284;2023-01-09T01:30:59;1.80;;;0.60;;
37459;SDS011;23318;50.966;5.284;2023-01-09T01:33:25;4.05;;;1.33;;
37459;SDS011;23318;50.966;5.284;2023-01-09T01:35:58;4.30;;;0.88;;
37459;SDS011;23318;50.966;5.284;2023-01-09T01:38:25;2.28;;;0.85;;
37459;SDS011;23318;50.966;5.284;2023-01-09T01:40:53;3.33;;;1.02;;
37459;SDS011;23318;50.966;5.284;2023-01-09T01:43:20;5.32;;;1.25;;
37459;SDS011;23318;50.966;5.284;2023-01-09T01:45:45;9.40;;;1.20;;
37459;SDS011;23318;50.966;5.284;2023-01-09T01:48:12;3.95;;;1.13;;
37459;SDS011;23318;50.966;5.284;2023-01-09T01:50:51;2.88;;;1.05;;
37459;SDS011;23318;50.966;5.284;2023-01-09T01:53:32;3.03;;;0.90;;
37459;SDS011;23318;50.966;5.284;2023-01-09T01:58:42;4.88;;;1.42;;
37459;SDS011;23318;50.966;5.284;2023-01-09T02:01:14;1.58;;;0.90;;
37459;SDS011;23318;50.966;5.284;2023-01-09T02:03:40;4.00;;;1.40;;
37459;SDS011;23318;50.966;5.284;2023-01-09T02:06:07;6.95;;;1.27;;
37459;SDS011;23318;50.966;5.284;2023-01-09T02:08:34;2.83;;;1.05;;
37459;SDS011;23318;50.966;5.284;2023-01-09T02:11:01;2.40;;;1.20;;
37459;SDS011;23318;50.966;5.284;2023-01-09T02:13:28;5.10;;;1.13;;
37459;SDS011;23318;50.966;5.284;2023-01-09T02:32:06;5.82;;;1.80;;
37459;SDS011;23318;50.966;5.284;2023-01-09T02:42:57;6.90;;;1.33;;
37459;SDS011;23318;50.966;5.284;2023-01-09T02:45:24;6.88;;;1.77;;
37459;SDS011;23318;50.966;5.284;2023-01-09T02:47:50;6.10;;;1.40;;
37459;SDS011;23318;50.966;5.284;2023-01-09T02:50:20;5.72;;;1.10;;
37459;SDS011;23318;50.966;5.284;2023-01-09T02:58:34;3.85;;;0.93;;
37459;SDS011;23318;50.966;5.284;2023-01-09T03:06:57;4.03;;;1.10;;
37459;SDS011;23318;50.966;5.284;2023-01-09T03:09:39;7.05;;;1.42;;
37459;SDS011;23318;50.966;5.284;2023-01-09T03:12:08;9.45;;;1.35;;
37459;SDS011;23318;50.966;5.284;2023-01-09T03:14:41;7.97;;;1.33;;
37459;SDS011;23318;50.966;5.284;2023-01-09T03:17:12;7.68;;;1.38;;
37459;SDS011;23318;50.966;5.284;2023-01-09T03:19:41;10.40;;;1.20;;
37459;SDS011;23318;50.966;5.284;2023-01-09T03:22:09;3.72;;;0.98;;
37459;SDS011;23318;50.966;5.284;2023-01-09T03:24:35;5.68;;;1.35;;
37459;SDS011;23318;50.966;5.284;2023-01-09T03:27:03;5.38;;;0.98;;
37459;SDS011;23318;50.966;5.284;2023-01-09T03:29:34;4.72;;;0.98;;
37459;SDS011;23318;50.966;5.284;2023-01-09T03:32:01;3.55;;;1.08;;
37459;SDS011;23318;50.966;5.284;2023-01-09T03:34:27;11.02;;;1.48;;
37459;SDS011;23318;50.966;5.284;2023-01-09T03:36:52;10.15;;;1.55;;
37459;SDS011;23318;50.966;5.284;2023-01-09T03:39:18;4.13;;;0.82;;
37459;SDS011;23318;50.966;5.284;2023-01-09T03:41:44;3.58;;;0.85;;
37459;SDS011;23318;50.966;5.284;2023-01-09T03:44:09;2.40;;;0.82;;
37459;SDS011;23318;50.966;5.284;2023-01-09T03:46:35;8.13;;;1.33;;
37459;SDS011;23318;50.966;5.284;2023-01-09T03:49:01;7.40;;;1.38;;
37459;SDS011;23318;50.966;5.284;2023-01-09T03:51:26;8.02;;;1.08;;
37459;SDS011;23318;50.966;5.284;2023-01-09T03:53:52;12.48;;;1.60;;
37459;SDS011;23318;50.966;5.284;2023-01-09T03:56:18;7.32;;;1.20;;
37459;SDS011;23318;50.966;5.284;2023-01-09T03:58:44;4.80;;;1.08;;
37459;SDS011;23318;50.966;5.284;2023-01-09T04:01:09;5.95;;;1.58;;
37459;SDS011;23318;50.966;5.284;2023-01-09T04:03:38;3.67;;;0.93;;
37459;SDS011;23318;50.966;5.284;2023-01-09T04:06:04;9.95;;;1.23;;
37459;SDS011;23318;50.966;5.284;2023-01-09T04:08:30;8.15;;;1.13;;
37459;SDS011;23318;50.966;5.284;2023-01-09T04:10:56;7.18;;;1.48;;
37459;SDS011;23318;50.966;5.284;2023-01-09T04:13:21;7.78;;;1.42;;
37459;SDS011;23318;50.966;5.284;2023-01-09T04:15:47;4.90;;;1.15;;
37459;SDS011;23318;50.966;5.284;2023-01-09T04:18:14;7.00;;;0.95;;
37459;SDS011;23318;50.966;5.284;2023-01-09T04:20:40;6.60;;;1.40;;
37459;SDS011;23318;50.966;5.284;2023-01-09T04:23:06;4.03;;;1.00;;
37459;SDS011;23318;50.966;5.284;2023-01-09T04:25:31;3.92;;;0.88;;
37459;SDS011;23318;50.966;5.284;2023-01-09T04:27:57;3.83;;;0.90;;
37459;SDS011;23318;50.966;5.284;2023-01-09T04:30:23;3.53;;;0.90;;
37459;SDS011;23318;50.966;5.284;2023-01-09T04:32:49;11.50;;;1.73;;
37459;SDS011;23318;50.966;5.284;2023-01-09T04:35:16;6.68;;;1.10;;
37459;SDS011;23318;50.966;5.284;2023-01-09T04:37:42;2.35;;;1.02;;
37459;SDS011;23318;50.966;5.284;2023-01-09T04:40:09;5.43;;;1.13;;
37459;SDS011;23318;50.966;5.284;2023-01-09T04:42:36;6.22;;;0.80;;
37459;SDS011;23318;50.966;5.284;2023-01-09T04:45:03;6.30;;;1.35;;
37459;SDS011;23318;50.966;5.284;2023-01-09T04:47:29;7.60;;;1.70;;
37459;SDS011;23318;50.966;5.284;2023-01-09T04:49:55;8.20;;;1.55;;
37459;SDS011;23318;50.966;5.284;2023-01-09T04:52:21;3.55;;;0.73;;
37459;SDS011;23318;50.966;5.284;2023-01-09T04:54:47;8.85;;;1.60;;
37459;SDS011;23318;50.966;5.284;2023-01-09T04:57:12;5.60;;;1.05;;
37459;SDS011;23318;50.966;5.284;2023-01-09T04:59:38;8.05;;;1.42;;
37459;SDS011;23318;50.966;5.284;2023-01-09T05:02:04;10.32;;;1.50;;
37459;SDS011;23318;50.966;5.284;2023-01-09T05:04:29;6.15;;;1.50;;
37459;SDS011;23318;50.966;5.284;2023-01-09T05:06:55;5.60;;;1.10;;
37459;SDS011;23318;50.966;5.284;2023-01-09T05:09:21;9.88;;;1.45;;
37459;SDS011;23318;50.966;5.284;2023-01-09T05:11:47;10.02;;;1.98;;
37459;SDS011;23318;50.966;5.284;2023-01-09T05:14:13;3.60;;;1.38;;
37459;SDS011;23318;50.966;5.284;2023-01-09T05:16:39;7.13;;;1.20;;
37459;SDS011;23318;50.966;5.284;2023-01-09T05:19:04;9.68;;;1.15;;
37459;SDS011;23318;50.966;5.284;2023-01-09T05:21:30;8.68;;;1.40;;
37459;SDS011;23318;50.966;5.284;2023-01-09T05:23:56;10.40;;;1.75;;
37459;SDS011;23318;50.966;5.284;2023-01-09T05:26:22;6.57;;;1.40;;
37459;SDS011;23318;50.966;5.284;2023-01-09T05:28:51;11.48;;;2.25;;
37459;SDS011;23318;50.966;5.284;2023-01-09T05:31:18;11.52;;;2.08;;
37459;SDS011;23318;50.966;5.284;2023-01-09T05:33:45;8.23;;;1.75;;
37459;SDS011;23318;50.966;5.284;2023-01-09T05:36:10;14.00;;;1.67;;
37459;SDS011;23318;50.966;5.284;2023-01-09T05:38:37;6.15;;;1.50;;
37459;SDS011;23318;50.966;5.284;2023-01-09T05:41:02;4.65;;;1.50;;
37459;SDS011;23318;50.966;5.284;2023-01-09T05:43:28;7.05;;;1.23;;
37459;SDS011;23318;50.966;5.284;2023-01-09T05:45:54;12.55;;;2.15;;
37459;SDS011;23318;50.966;5.284;2023-01-09T05:48:20;11.93;;;1.63;;
37459;SDS011;23318;50.966;5.284;2023-01-09T05:50:45;11.98;;;1.85;;
37459;SDS011;23318;50.966;5.284;2023-01-09T05:53:11;8.02;;;1.80;;
37459;SDS011;23318;50.966;5.284;2023-01-09T05:55:37;9.75;;;1.98;;
37459;SDS011;23318;50.966;5.284;2023-01-09T05:58:02;6.63;;;1.20;;
37459;SDS011;23318;50.966;5.284;2023-01-09T06:00:28;5.22;;;1.10;;
37459;SDS011;23318;50.966;5.284;2023-01-09T06:02:54;8.32;;;1.60;;
37459;SDS011;23318;50.966;5.284;2023-01-09T06:05:19;10.88;;;1.90;;
37459;SDS011;23318;50.966;5.284;2023-01-09T06:07:45;8.50;;;1.75;;
37459;SDS011;23318;50.966;5.284;2023-01-09T06:10:12;6.43;;;1.85;;
37459;SDS011;23318;50.966;5.284;2023-01-09T06:12:38;9.13;;;1.80;;
37459;SDS011;23318;50.966;5.284;2023-01-09T06:15:04;12.15;;;1.50;;
37459;SDS011;23318;50.966;5.284;2023-01-09T06:17:31;14.27;;;1.80;;
37459;SDS011;23318;50.966;5.284;2023-01-09T06:19:56;5.65;;;1.35;;
37459;SDS011;23318;50.966;5.284;2023-01-09T06:22:22;9.82;;;1.38;;
37459;SDS011;23318;50.966;5.284;2023-01-09T06:24:47;10.45;;;1.85;;
37459;SDS011;23318;50.966;5.284;2023-01-09T06:27:13;9.63;;;1.77;;
37459;SDS011;23318;50.966;5.284;2023-01-09T06:29:39;7.35;;;1.98;;
37459;SDS011;23318;50.966;5.284;2023-01-09T06:32:05;6.70;;;1.23;;
37459;SDS011;23318;50.966;5.284;2023-01-09T06:34:30;4.88;;;1.30;;
37459;SDS011;23318;50.966;5.284;2023-01-09T06:36:56;13.82;;;2.10;;
37459;SDS011;23318;50.966;5.284;2023-01-09T06:39:22;7.53;;;2.08;;
37459;SDS011;23318;50.966;5.284;2023-01-09T06:41:47;10.18;;;1.60;;
37459;SDS011;23318;50.966;5.284;2023-01-09T06:44:13;5.53;;;1.15;;
37459;SDS011;23318;50.966;5.284;2023-01-09T06:46:39;9.60;;;1.45;;
37459;SDS011;23318;50.966;5.284;2023-01-09T06:49:04;10.27;;;1.73;;
37459;SDS011;23318;50.966;5.284;2023-01-09T06:51:30;10.50;;;2.08;;
37459;SDS011;23318;50.966;5.284;2023-01-09T06:53:56;10.55;;;2.10;;
37459;SDS011;23318;50.966;5.284;2023-01-09T06:56:21;11.30;;;2.35;;
37459;SDS011;23318;50.966;5.284;2023-01-09T06:58:47;8.30;;;1.50;;
37459;SDS011;23318;50.966;5.284;2023-01-09T07:01:13;9.85;;;2.10;;
37459;SDS011;23318;50.966;5.284;2023-01-09T07:03:39;11.75;;;1.63;;
37459;SDS011;23318;50.966;5.284;2023-01-09T07:06:04;8.90;;;1.75;;
37459;SDS011;23318;50.966;5.284;2023-01-09T07:08:30;7.72;;;1.08;;
37459;SDS011;23318;50.966;5.284;2023-01-09T07:10:58;8.23;;;1.38;;
37459;SDS011;23318;50.966;5.284;2023-01-09T07:13:23;6.15;;;1.52;;
37459;SDS011;23318;50.966;5.284;2023-01-09T07:15:49;6.47;;;1.45;;
37459;SDS011;23318;50.966;5.284;2023-01-09T07:18:17;5.13;;;1.55;;
37459;SDS011;23318;50.966;5.284;2023-01-09T07:20:43;7.28;;;1.38;;
37459;SDS011;23318;50.966;5.284;2023-01-09T07:23:12;5.15;;;0.88;;
37459;SDS011;23318;50.966;5.284;2023-01-09T07:25:40;8.20;;;0.98;;
37459;SDS011;23318;50.966;5.284;2023-01-09T07:28:06;6.18;;;1.10;;
37459;SDS011;23318;50.966;5.284;2023-01-09T07:30:32;3.35;;;0.52;;
37459;SDS011;23318;50.966;5.284;2023-01-09T07:32:58;3.63;;;1.23;;
37459;SDS011;23318;50.966;5.284;2023-01-09T07:35:23;7.13;;;1.48;;
37459;SDS011;23318;50.966;5.284;2023-01-09T07:37:49;6.07;;;1.27;;
37459;SDS011;23318;50.966;5.284;2023-01-09T07:40:15;7.05;;;1.20;;
37459;SDS011;23318;50.966;5.284;2023-01-09T07:42:41;4.93;;;1.35;;
37459;SDS011;23318;50.966;5.284;2023-01-09T07:45:07;9.30;;;1.67;;
37459;SDS011;23318;50.966;5.284;2023-01-09T07:47:33;11.98;;;1.92;;
37459;SDS011;23318;50.966;5.284;2023-01-09T07:49:58;5.97;;;1.00;;
37459;SDS011;23318;50.966;5.284;2023-01-09T07:52:24;7.53;;;1.83;;
37459;SDS011;23318;50.966;5.284;2023-01-09T07:54:51;7.50;;;1.55;;
37459;SDS011;23318;50.966;5.284;2023-01-09T07:57:17;7.15;;;1.42;;
37459;SDS011;23318;50.966;5.284;2023-01-09T07:59:43;5.55;;;0.80;;
37459;SDS011;23318;50.966;5.284;2023-01-09T08:02:08;5.47;;;1.17;;
37459;SDS011;23318;50.966;5.284;2023-01-09T08:04:34;5.00;;;1.08;;
37459;SDS011;23318;50.966;5.284;2023-01-09T08:07:00;5.47;;;1.13;;
37459;SDS011;23318;50.966;5.284;2023-01-09T08:09:27;6.70;;;1.38;;
37459;SDS011;23318;50.966;5.284;2023-01-09T08:11:53;7.50;;;1.42;;
37459;SDS011;23318;50.966;5.284;2023-01-09T08:14:19;6.65;;;1.48;;
37459;SDS011;23318;50.966;5.284;2023-01-09T08:16:44;8.30;;;1.45;;
37459;SDS011;23318;50.966;5.284;2023-01-09T08:19:10;7.28;;;1.60;;
37459;SDS011;23318;50.966;5.284;2023-01-09T08:21:36;9.82;;;1.63;;
37459;SDS011;23318;50.966;5.284;2023-01-09T08:24:03;7.13;;;1.40;;
37459;SDS011;23318;50.966;5.284;2023-01-09T08:26:29;4.20;;;1.15;;
37459;SDS011;23318;50.966;5.284;2023-01-09T08:28:54;10.02;;;1.20;;
37459;SDS011;23318;50.966;5.284;2023-01-09T08:31:20;7.13;;;1.40;;
37459;SDS011;23318;50.966;5.284;2023-01-09T08:33:46;3.05;;;1.08;;
37459;SDS011;23318;50.966;5.284;2023-01-09T08:36:11;5.95;;;1.38;;
37459;SDS011;23318;50.966;5.284;2023-01-09T08:38:37;4.05;;;1.00;;
37459;SDS011;23318;50.966;5.284;2023-01-09T08:41:02;6.78;;;0.75;;
37459;SDS011;23318;50.966;5.284;2023-01-09T08:43:48;8.68;;;1.20;;
37459;SDS011;23318;50.966;5.284;2023-01-09T08:49:16;2.83;;;1.10;;
37459;SDS011;23318;50.966;5.284;2023-01-09T08:51:42;7.65;;;1.58;;
37459;SDS011;23318;50.966;5.284;2023-01-09T08:54:08;8.57;;;1.65;;
37459;SDS011;23318;50.966;5.284;2023-01-09T08:56:33;5.80;;;1.35;;
37459;SDS011;23318;50.966;5.284;2023-01-09T08:58:59;4.90;;;1.80;;
37459;SDS011;23318;50.966;5.284;2023-01-09T09:01:25;9.05;;;2.10;;
37459;SDS011;23318;50.966;5.284;2023-01-09T09:03:50;6.05;;;1.60;;
37459;SDS011;23318;50.966;5.284;2023-01-09T09:06:16;10.23;;;1.83;;
37459;SDS011;23318;50.966;5.284;2023-01-09T09:08:42;5.93;;;1.85;;
37459;SDS011;23318;50.966;5.284;2023-01-09T09:11:07;9.57;;;1.58;;
37459;SDS011;23318;50.966;5.284;2023-01-09T09:13:33;6.38;;;1.17;;
37459;SDS011;23318;50.966;5.284;2023-01-09T09:15:58;9.88;;;1.65;;
37459;SDS011;23318;50.966;5.284;2023-01-09T09:18:24;7.00;;;1.85;;
37459;SDS011;23318;50.966;5.284;2023-01-09T09:20:50;7.00;;;2.03;;
37459;SDS011;23318;50.966;5.284;2023-01-09T09:23:15;3.85;;;0.60;;
37459;SDS011;23318;50.966;5.284;2023-01-09T09:25:41;6.80;;;1.42;;
37459;SDS011;23318;50.966;5.284;2023-01-09T09:28:08;4.82;;;1.08;;
37459;SDS011;23318;50.966;5.284;2023-01-09T09:30:33;4.72;;;1.27;;
37459;SDS011;23318;50.966;5.284;2023-01-09T09:33:01;7.38;;;1.38;;
37459;SDS011;23318;50.966;5.284;2023-01-09T09:35:28;9.60;;;1.27;;
37459;SDS011;23318;50.966;5.284;2023-01-09T09:37:57;10.02;;;1.67;;
37459;SDS011;23318;50.966;5.284;2023-01-09T09:40:46;7.65;;;1.10;;
37459;SDS011;23318;50.966;5.284;2023-01-09T09:49:42;4.57;;;1.00;;
37459;SDS011;23318;50.966;5.284;2023-01-09T09:55:24;2.38;;;0.73;;
37459;SDS011;23318;50.966;5.284;2023-01-09T09:57:55;3.80;;;0.60;;
37459;SDS011;23318;50.966;5.284;2023-01-09T10:00:23;3.17;;;0.70;;
37459;SDS011;23318;50.966;5.284;2023-01-09T10:02:51;1.08;;;0.70;;
37459;SDS011;23318;50.966;5.284;2023-01-09T10:05:39;8.68;;;0.70;;
37459;SDS011;23318;50.966;5.284;2023-01-09T10:11:23;1.25;;;0.50;;
37459;SDS011;23318;50.966;5.284;2023-01-09T10:13:56;1.85;;;0.47;;
37459;SDS011;23318;50.966;5.284;2023-01-09T10:30:39;3.35;;;0.90;;
37459;SDS011;23318;50.966;5.284;2023-01-09T10:38:56;1.67;;;0.60;;
37459;SDS011;23318;50.966;5.284;2023-01-09T10:44:20;2.83;;;0.40;;
37459;SDS011;23318;50.966;5.284;2023-01-09T10:46:55;1.15;;;0.45;;
37459;SDS011;23318;50.966;5.284;2023-01-09T10:49:22;5.45;;;1.80;;
37459;SDS011;23318;50.966;5.284;2023-01-09T10:51:56;2.40;;;0.77;;
37459;SDS011;23318;50.966;5.284;2023-01-09T10:54:29;1.48;;;0.75;;
37459;SDS011;23318;50.966;5.284;2023-01-09T10:56:58;0.80;;;0.40;;
37459;SDS011;23318;50.966;5.284;2023-01-09T10:59:46;1.20;;;0.35;;
37459;SDS011;23318;50.966;5.284;2023-01-09T11:02:20;2.13;;;0.30;;
37459;SDS011;23318;50.966;5.284;2023-01-09T11:04:49;2.92;;;0.50;;
37459;SDS011;23318;50.966;5.284;2023-01-09T11:07:19;3.97;;;1.27;;
37459;SDS011;23318;50.966;5.284;2023-01-09T11:10:07;1.63;;;0.55;;
37459;SDS011;23318;50.966;5.284;2023-01-09T11:12:36;3.25;;;1.13;;
37459;SDS011;23318;50.966;5.284;2023-01-09T11:17:41;3.17;;;1.20;;
37459;SDS011;23318;50.966;5.284;2023-01-09T11:20:19;1.60;;;0.90;;
37459;SDS011;23318;50.966;5.284;2023-01-09T11:22:53;1.67;;;0.60;;
37459;SDS011;23318;50.966;5.284;2023-01-09T11:25:21;2.33;;;0.80;;
37459;SDS011;23318;50.966;5.284;2023-01-09T11:30:26;3.10;;;0.95;;
37459;SDS011;23318;50.966;5.284;2023-01-09T11:32:58;2.35;;;1.60;;
37459;SDS011;23318;50.966;5.284;2023-01-09T11:38:02;5.03;;;1.10;;
37459;SDS011;23318;50.966;5.284;2023-01-09T11:40:30;6.78;;;0.85;;
37459;SDS011;23318;50.966;5.284;2023-01-09T11:43:03;3.10;;;1.20;;
37459;SDS011;23318;50.966;5.284;2023-01-09T11:45:40;2.85;;;1.20;;
37459;SDS011;23318;50.966;5.284;2023-01-09T11:48:26;4.05;;;1.40;;
37459;SDS011;23318;50.966;5.284;2023-01-09T11:50:56;1.42;;;1.10;;
37459;SDS011;23318;50.966;5.284;2023-01-09T11:53:24;2.72;;;1.38;;
37459;SDS011;23318;50.966;5.284;2023-01-09T11:55:55;2.97;;;0.90;;
37459;SDS011;23318;50.966;5.284;2023-01-09T11:58:26;8.13;;;1.20;;
37459;SDS011;23318;50.966;5.284;2023-01-09T12:01:06;4.68;;;1.00;;
37459;SDS011;23318;50.966;5.284;2023-01-09T12:06:56;3.00;;;1.00;;
37459;SDS011;23318;50.966;5.284;2023-01-09T12:09:28;4.30;;;0.95;;
37459;SDS011;23318;50.966;5.284;2023-01-09T12:12:17;4.50;;;1.15;;
37459;SDS011;23318;50.966;5.284;2023-01-09T12:17:38;3.47;;;1.00;;
37459;SDS011;23318;50.966;5.284;2023-01-09T12:26:19;6.68;;;1.15;;
37459;SDS011;23318;50.966;5.284;2023-01-09T12:34:33;5.47;;;1.30;;
37459;SDS011;23318;50.966;5.284;2023-01-09T12:40:09;5.00;;;1.48;;
37459;SDS011;23318;50.966;5.284;2023-01-09T12:45:36;3.10;;;1.45;;
37459;SDS011;23318;50.966;5.284;2023-01-09T12:56:49;5.00;;;1.30;;
37459;SDS011;23318;50.966;5.284;2023-01-09T12:59:23;4.88;;;1.30;;
37459;SDS011;23318;50.966;5.284;2023-01-09T13:01:57;3.10;;;1.10;;
37459;SDS011;23318;50.966;5.284;2023-01-09T13:04:46;5.05;;;1.10;;
37459;SDS011;23318;50.966;5.284;2023-01-09T13:07:39;7.35;;;1.40;;
37459;SDS011;23318;50.966;5.284;2023-01-09T13:10:28;4.90;;;1.10;;
37459;SDS011;23318;50.966;5.284;2023-01-09T13:12:57;4.40;;;1.13;;
37459;SDS011;23318;50.966;5.284;2023-01-09T13:15:43;1.92;;;1.27;;
37459;SDS011;23318;50.966;5.284;2023-01-09T13:18:21;5.85;;;1.73;;
37459;SDS011;23318;50.966;5.284;2023-01-09T13:20:52;5.13;;;1.30;;
37459;SDS011;23318;50.966;5.284;2023-01-09T13:23:34;7.63;;;1.02;;
37459;SDS011;23318;50.966;5.284;2023-01-09T13:26:27;5.22;;;1.20;;
37459;SDS011;23318;50.966;5.284;2023-01-09T13:29:46;7.00;;;1.60;;
37459;SDS011;23318;50.966;5.284;2023-01-09T13:34:33;3.20;;;1.45;;
37459;SDS011;23318;50.966;5.284;2023-01-09T13:37:00;4.43;;;1.40;;
37459;SDS011;23318;50.966;5.284;2023-01-09T13:39:27;6.45;;;1.40;;
37459;SDS011;23318;50.966;5.284;2023-01-09T13:42:01;9.23;;;2.13;;
37459;SDS011;23318;50.966;5.284;2023-01-09T13:44:47;4.95;;;1.50;;
37459;SDS011;23318;50.966;5.284;2023-01-09T13:47:17;10.68;;;3.05;;
37459;SDS011;23318;50.966;5.284;2023-01-09T14:00:46;11.50;;;2.47;;
37459;SDS011;23318;50.966;5.284;2023-01-09T14:05:14;8.23;;;2.25;;
37459;SDS011;23318;50.966;5.284;2023-01-09T14:07:45;22.25;;;7.97;;
37459;SDS011;23318;50.966;5.284;2023-01-09T14:12:50;8.02;;;3.13;;
37459;SDS011;23318;50.966;5.284;2023-01-09T14:15:23;8.93;;;3.10;;
37459;SDS011;23318;50.966;5.284;2023-01-09T14:20:54;6.28;;;2.42;;
37459;SDS011;23318;50.966;5.284;2023-01-09T14:23:28;5.45;;;2.38;;
37459;SDS011;23318;50.966;5.284;2023-01-09T14:26:01;8.32;;;2.45;;
37459;SDS011;23318;50.966;5.284;2023-01-09T14:28:28;12.20;;;4.55;;
37459;SDS011;23318;50.966;5.284;2023-01-09T14:33:24;7.20;;;1.73;;
37459;SDS011;23318;50.966;5.284;2023-01-09T14:46:45;6.93;;;1.70;;
37459;SDS011;23318;50.966;5.284;2023-01-09T14:49:15;7.30;;;1.73;;
37459;SDS011;23318;50.966;5.284;2023-01-09T14:51:55;7.20;;;2.20;;
37459;SDS011;23318;50.966;5.284;2023-01-09T14:56:50;9.70;;;2.47;;
37459;SDS011;23318;50.966;5.284;2023-01-09T14:59:15;7.13;;;1.73;;
37459;SDS011;23318;50.966;5.284;2023-01-09T15:01:43;15.18;;;2.25;;
37459;SDS011;23318;50.966;5.284;2023-01-09T15:06:59;9.98;;;2.35;;
37459;SDS011;23318;50.966;5.284;2023-01-09T15:09:27;9.68;;;2.92;;
37459;SDS011;23318;50.966;5.284;2023-01-09T15:12:05;11.88;;;2.42;;
37459;SDS011;23318;50.966;5.284;2023-01-09T15:14:34;12.50;;;2.53;;
37459;SDS011;23318;50.966;5.284;2023-01-09T15:17:05;8.65;;;2.92;;
37459;SDS011;23318;50.966;5.284;2023-01-09T15:19:42;13.18;;;2.85;;
37459;SDS011;23318;50.966;5.284;2023-01-09T15:22:19;11.43;;;3.35;;
37459;SDS011;23318;50.966;5.284;2023-01-09T15:24:47;14.32;;;3.13;;
37459;SDS011;23318;50.966;5.284;2023-01-09T15:27:14;22.05;;;3.60;;
37459;SDS011;23318;50.966;5.284;2023-01-09T15:29:40;11.10;;;2.83;;
37459;SDS011;23318;50.966;5.284;2023-01-09T15:32:11;9.27;;;3.05;;
37459;SDS011;23318;50.966;5.284;2023-01-09T15:34:39;10.07;;;2.35;;
37459;SDS011;23318;50.966;5.284;2023-01-09T15:37:18;12.13;;;3.35;;
37459;SDS011;23318;50.966;5.284;2023-01-09T15:39:57;12.93;;;3.65;;
37459;SDS011;23318;50.966;5.284;2023-01-09T15:42:35;16.42;;;4.18;;
37459;SDS011;23318;50.966;5.284;2023-01-09T15:50:51;14.70;;;4.38;;
37459;SDS011;23318;50.966;5.284;2023-01-09T15:53:26;11.10;;;3.67;;
37459;SDS011;23318;50.966;5.284;2023-01-09T15:58:35;19.05;;;4.38;;
37459;SDS011;23318;50.966;5.284;2023-01-09T16:04:08;17.08;;;2.63;;
37459;SDS011;23318;50.966;5.284;2023-01-09T16:06:36;18.50;;;4.47;;
37459;SDS011;23318;50.966;5.284;2023-01-09T16:09:15;14.98;;;3.78;;
37459;SDS011;23318;50.966;5.284;2023-01-09T16:14:21;14.70;;;2.92;;
37459;SDS011;23318;50.966;5.284;2023-01-09T16:16:49;8.77;;;2.30;;
37459;SDS011;23318;50.966;5.284;2023-01-09T16:21:58;9.35;;;2.70;;
37459;SDS011;23318;50.966;5.284;2023-01-09T16:24:46;12.95;;;2.55;;
37459;SDS011;23318;50.966;5.284;2023-01-09T16:29:44;9.50;;;2.13;;
37459;SDS011;23318;50.966;5.284;2023-01-09T16:32:21;9.23;;;2.70;;
37459;SDS011;23318;50.966;5.284;2023-01-09T16:34:52;14.32;;;2.50;;
37459;SDS011;23318;50.966;5.284;2023-01-09T16:37:29;11.88;;;2.30;;
37459;SDS011;23318;50.966;5.284;2023-01-09T16:42:42;12.90;;;2.65;;
37459;SDS011;23318;50.966;5.284;2023-01-09T16:47:54;7.38;;;1.98;;
37459;SDS011;23318;50.966;5.284;2023-01-09T16:50:22;10.07;;;2.15;;
37459;SDS011;23318;50.966;5.284;2023-01-09T16:52:49;9.45;;;2.60;;
37459;SDS011;23318;50.966;5.284;2023-01-09T16:55:15;8.65;;;2.30;;
37459;SDS011;23318;50.966;5.284;2023-01-09T16:57:41;8.57;;;2.40;;
37459;SDS011;23318;50.966;5.284;2023-01-09T17:00:16;12.27;;;2.08;;
37459;SDS011;23318;50.966;5.284;2023-01-09T17:02:44;8.55;;;2.30;;
37459;SDS011;23318;50.966;5.284;2023-01-09T17:05:09;10.27;;;2.65;;
37459;SDS011;23318;50.966;5.284;2023-01-09T17:07:35;11.68;;;3.00;;
37459;SDS011;23318;50.966;5.284;2023-01-09T17:10:02;9.02;;;2.72;;
37459;SDS011;23318;50.966;5.284;2023-01-09T17:12:29;9.23;;;2.33;;
37459;SDS011;23318;50.966;5.284;2023-01-09T17:14:55;14.93;;;2.72;;
37459;SDS011;23318;50.966;5.284;2023-01-09T17:17:21;9.70;;;3.17;;
37459;SDS011;23318;50.966;5.284;2023-01-09T17:19:47;10.25;;;3.10;;
37459;SDS011;23318;50.966;5.284;2023-01-09T17:22:13;10.15;;;3.13;;
37459;SDS011;23318;50.966;5.284;2023-01-09T17:24:39;10.30;;;2.67;;
37459;SDS011;23318;50.966;5.284;2023-01-09T17:27:31;8.55;;;2.50;;
37459;SDS011;23318;50.966;5.284;2023-01-09T17:30:18;11.75;;;4.70;;
37459;SDS011;23318;50.966;5.284;2023-01-09T17:32:44;7.57;;;2.88;;
37459;SDS011;23318;50.966;5.284;2023-01-09T17:35:11;9.80;;;3.03;;
37459;SDS011;23318;50.966;5.284;2023-01-09T17:37:37;8.48;;;2.25;;
37459;SDS011;23318;50.966;5.284;2023-01-09T17:40:04;7.57;;;2.50;;
37459;SDS011;23318;50.966;5.284;2023-01-09T17:42:43;8.75;;;3.17;;
37459;SDS011;23318;50.966;5.284;2023-01-09T17:45:09;10.15;;;2.78;;
37459;SDS011;23318;50.966;5.284;2023-01-09T17:47:35;8.68;;;2.80;;
37459;SDS011;23318;50.966;5.284;2023-01-09T17:50:01;8.30;;;3.13;;
37459;SDS011;23318;50.966;5.284;2023-01-09T17:52:28;11.00;;;2.35;;
37459;SDS011;23318;50.966;5.284;2023-01-09T17:54:53;5.28;;;2.72;;
37459;SDS011;23318;50.966;5.284;2023-01-09T17:57:19;9.23;;;2.50;;
37459;SDS011;23318;50.966;5.284;2023-01-09T17:59:45;8.40;;;2.55;;